sensor_id;sensor_type;location;lat;lon;timestamp;pressure;altitude;pressure_sealevel;temperature;humidity
4576;BME280;2300;51.874;8.430;2023-06-14T00:00:21;100632.94;;;17.35;54.22
4576;BME280;2300;51.874;8.430;2023-06-14T00:02:50;100632.94;;;17.40;53.87
4576;BME280;2300;51.874;8.430;2023-06-14T00:05:16;100636.81;;;17.34;54.41
4576;BME280;2300;51.874;8.430;2023-06-14T00:07:43;100636.81;;;17.29;54.19
4576;BME280;2300;51.874;8.430;2023-06-14T00:10:14;100634.59;;;17.21;54.72
4576;BME280;2300;51.874;8.430;2023-06-14T00:12:41;100639.59;;;17.13;55.30
4576;BME280;2300;51.874;8.430;2023-06-14T00:15:10;100605.19;;;16.94;54.76
4576;BME280;2300;51.874;8.430;2023-06-14T00:17:39;100642.09;;;17.15;55.05
4576;BME280;2300;51.874;8.430;2023-06-14T00:20:08;100637.09;;;17.07;55.73
4576;BME280;2300;51.874;8.430;2023-06-14T00:22:35;100653.69;;;17.02;55.32
4576;BME280;2300;51.874;8.430;2023-06-14T00:25:04;100629.00;;;16.85;55.49
4576;BME280;2300;51.874;8.430;2023-06-14T00:27:32;100624.28;;;16.75;55.51
4576;BME280;2300;51.874;8.430;2023-06-14T00:29:58;100656.72;;;16.90;55.79
4576;BME280;2300;51.874;8.430;2023-06-14T00:32:27;100665.06;;;16.95;55.70
4576;BME280;2300;51.874;8.430;2023-06-14T00:34:53;100665.06;;;16.95;55.36
4576;BME280;2300;51.874;8.430;2023-06-14T00:37:21;100672.28;;;16.91;55.73
4576;BME280;2300;51.874;8.430;2023-06-14T00:39:48;100664.19;;;16.80;55.77
4576;BME280;2300;51.874;8.430;2023-06-14T00:42:24;100670.59;;;16.85;56.28
4576;BME280;2300;51.874;8.430;2023-06-14T00:44:52;100670.91;;;16.89;55.53
4576;BME280;2300;51.874;8.430;2023-06-14T00:47:19;100674.47;;;16.84;56.23
4576;BME280;2300;51.874;8.430;2023-06-14T00:49:49;100668.66;;;16.81;56.39
4576;BME280;2300;51.874;8.430;2023-06-14T00:52:18;100674.44;;;16.74;56.24
4576;BME280;2300;51.874;8.430;2023-06-14T00:54:45;100665.00;;;16.65;56.51
4576;BME280;2300;51.874;8.430;2023-06-14T00:57:13;100676.09;;;16.70;56.24
4576;BME280;2300;51.874;8.430;2023-06-14T00:59:42;100678.84;;;16.60;56.64
4576;BME280;2300;51.874;8.430;2023-06-14T01:02:09;100648.88;;;16.47;56.59
4576;BME280;2300;51.874;8.430;2023-06-14T01:04:37;100676.34;;;16.58;56.82
4576;BME280;2300;51.874;8.430;2023-06-14T01:07:15;100681.59;;;16.55;56.83
4576;BME280;2300;51.874;8.430;2023-06-14T01:09:48;100680.50;;;16.51;57.05
4576;BME280;2300;51.874;8.430;2023-06-14T01:12:27;100680.50;;;16.51;57.02
4576;BME280;2300;51.874;8.430;2023-06-14T01:14:57;100671.03;;;16.42;57.80
4576;BME280;2300;51.874;8.430;2023-06-14T01:17:27;100672.66;;;16.38;57.92
4576;BME280;2300;51.874;8.430;2023-06-14T01:19:57;100681.28;;;16.41;58.60
4576;BME280;2300;51.874;8.430;2023-06-14T01:22:27;100676.53;;;16.31;57.86
4576;BME280;2300;51.874;8.430;2023-06-14T01:24:55;100660.13;;;16.15;57.83
4576;BME280;2300;51.874;8.430;2023-06-14T01:27:23;100679.31;;;16.31;58.55
4576;BME280;2300;51.874;8.430;2023-06-14T01:29:54;100671.25;;;16.25;58.28
4576;BME280;2300;51.874;8.430;2023-06-14T01:32:22;100666.50;;;16.15;58.65
4576;BME280;2300;51.874;8.430;2023-06-14T01:34:49;100677.56;;;16.15;58.96
4576;BME280;2300;51.874;8.430;2023-06-14T01:37:16;100684.09;;;15.99;58.80
4576;BME280;2300;51.874;8.430;2023-06-14T01:39:44;100664.09;;;15.87;59.14
4576;BME280;2300;51.874;8.430;2023-06-14T01:42:14;100685.78;;;16.00;59.17
4576;BME280;2300;51.874;8.430;2023-06-14T01:44:43;100691.00;;;15.97;59.45
4576;BME280;2300;51.874;8.430;2023-06-14T01:47:11;100664.28;;;15.75;59.20
4576;BME280;2300;51.874;8.430;2023-06-14T01:49:40;100682.56;;;15.76;59.47
4576;BME280;2300;51.874;8.430;2023-06-14T01:52:08;100677.53;;;15.68;59.54
4576;BME280;2300;51.874;8.430;2023-06-14T01:54:36;100699.97;;;15.72;59.56
4576;BME280;2300;51.874;8.430;2023-06-14T01:57:07;100684.97;;;15.63;60.21
4576;BME280;2300;51.874;8.430;2023-06-14T01:59:37;100701.88;;;15.66;59.62
4576;BME280;2300;51.874;8.430;2023-06-14T02:02:04;100705.22;;;15.68;60.06
4576;BME280;2300;51.874;8.430;2023-06-14T02:04:31;100695.78;;;15.64;60.64
4576;BME280;2300;51.874;8.430;2023-06-14T02:06:58;100705.97;;;15.59;60.22
4576;BME280;2300;51.874;8.430;2023-06-14T02:09:25;100698.16;;;15.50;60.21
4576;BME280;2300;51.874;8.430;2023-06-14T02:11:52;100693.72;;;15.49;60.73
4576;BME280;2300;51.874;8.430;2023-06-14T02:14:19;100677.00;;;15.34;61.02
4576;BME280;2300;51.874;8.430;2023-06-14T02:16:47;100698.63;;;15.37;61.12
4576;BME280;2300;51.874;8.430;2023-06-14T02:19:15;100705.81;;;15.38;61.10
4576;BME280;2300;51.874;8.430;2023-06-14T02:21:43;100701.59;;;15.31;61.28
4576;BME280;2300;51.874;8.430;2023-06-14T02:24:10;100704.34;;;15.31;61.37
4576;BME280;2300;51.874;8.430;2023-06-14T02:26:37;100690.16;;;15.17;61.91
4576;BME280;2300;51.874;8.430;2023-06-14T02:29:04;100710.34;;;15.18;61.34
4576;BME280;2300;51.874;8.430;2023-06-14T02:31:31;100700.91;;;15.19;61.59
4576;BME280;2300;51.874;8.430;2023-06-14T02:34:00;100709.47;;;15.12;62.11
4576;BME280;2300;51.874;8.430;2023-06-14T02:36:27;100700.56;;;15.10;62.34
4576;BME280;2300;51.874;8.430;2023-06-14T02:38:55;100706.69;;;15.12;61.74
4576;BME280;2300;51.874;8.430;2023-06-14T02:41:22;100708.03;;;15.10;62.13
4576;BME280;2300;51.874;8.430;2023-06-14T02:43:50;100709.38;;;15.07;61.70
4576;BME280;2300;51.874;8.430;2023-06-14T02:46:19;100705.94;;;14.95;62.73
4576;BME280;2300;51.874;8.430;2023-06-14T02:48:45;100700.94;;;14.92;63.45
4576;BME280;2300;51.874;8.430;2023-06-14T02:51:14;100667.41;;;14.61;63.06
4576;BME280;2300;51.874;8.430;2023-06-14T02:53:40;100636.53;;;14.43;62.88
4576;BME280;2300;51.874;8.430;2023-06-14T02:56:07;100688.81;;;14.71;62.59
4576;BME280;2300;51.874;8.430;2023-06-14T02:58:34;100697.16;;;14.76;62.82
4576;BME280;2300;51.874;8.430;2023-06-14T03:01:02;100677.97;;;14.64;62.57
4576;BME280;2300;51.874;8.430;2023-06-14T03:03:31;100705.41;;;14.71;63.48
4576;BME280;2300;51.874;8.430;2023-06-14T03:06:01;100713.94;;;14.70;63.54
4576;BME280;2300;51.874;8.430;2023-06-14T03:08:31;100704.75;;;14.64;63.45
4576;BME280;2300;51.874;8.430;2023-06-14T03:11:04;100713.31;;;14.62;63.93
4576;BME280;2300;51.874;8.430;2023-06-14T03:13:31;100718.53;;;14.59;63.43
4576;BME280;2300;51.874;8.430;2023-06-14T03:15:59;100722.69;;;14.61;63.74
4576;BME280;2300;51.874;8.430;2023-06-14T03:18:28;100729.03;;;14.62;63.61
4576;BME280;2300;51.874;8.430;2023-06-14T03:20:57;100707.34;;;14.49;63.46
4576;BME280;2300;51.874;8.430;2023-06-14T03:23:24;100731.03;;;14.66;63.64
4576;BME280;2300;51.874;8.430;2023-06-14T03:25:53;100734.91;;;14.65;63.50
4576;BME280;2300;51.874;8.430;2023-06-14T03:28:21;100726.50;;;14.55;63.78
4576;BME280;2300;51.874;8.430;2023-06-14T03:30:48;100737.63;;;14.60;63.74
4576;BME280;2300;51.874;8.430;2023-06-14T03:33:15;100738.16;;;14.62;63.94
4576;BME280;2300;51.874;8.430;2023-06-14T03:35:43;100735.94;;;14.59;64.56
4576;BME280;2300;51.874;8.430;2023-06-14T03:38:10;100740.94;;;14.62;64.13
4576;BME280;2300;51.874;8.430;2023-06-14T03:40:41;100730.41;;;14.59;63.51
4576;BME280;2300;51.874;8.430;2023-06-14T03:43:09;100663.69;;;14.24;64.13
4576;BME280;2300;51.874;8.430;2023-06-14T03:45:36;100742.16;;;14.72;63.88
4576;BME280;2300;51.874;8.430;2023-06-14T03:48:03;100701.81;;;14.49;63.58
4576;BME280;2300;51.874;8.430;2023-06-14T03:50:31;100747.81;;;14.82;63.52
4576;BME280;2300;51.874;8.430;2023-06-14T03:52:59;100747.41;;;14.73;64.31
4576;BME280;2300;51.874;8.430;2023-06-14T03:55:26;100756.09;;;14.82;63.64
4576;BME280;2300;51.874;8.430;2023-06-14T03:57:53;100754.22;;;14.87;63.34
4576;BME280;2300;51.874;8.430;2023-06-14T04:00:21;100762.91;;;14.96;63.66
4576;BME280;2300;51.874;8.430;2023-06-14T04:02:48;100764.34;;;15.03;63.37
4576;BME280;2300;51.874;8.430;2023-06-14T04:05:15;100772.38;;;15.05;63.66
4576;BME280;2300;51.874;8.430;2023-06-14T04:07:44;100776.91;;;15.11;63.55
4576;BME280;2300;51.874;8.430;2023-06-14T04:10:14;100728.47;;;14.82;63.67
4576;BME280;2300;51.874;8.430;2023-06-14T04:12:41;100773.06;;;15.12;63.52
4576;BME280;2300;51.874;8.430;2023-06-14T04:15:09;100756.72;;;15.11;63.10
4576;BME280;2300;51.874;8.430;2023-06-14T04:17:38;100793.81;;;15.15;63.20
4576;BME280;2300;51.874;8.430;2023-06-14T04:20:07;100783.44;;;15.27;63.31
4576;BME280;2300;51.874;8.430;2023-06-14T04:22:35;100794.25;;;15.28;63.11
4576;BME280;2300;51.874;8.430;2023-06-14T04:25:03;100750.22;;;15.00;63.10
4576;BME280;2300;51.874;8.430;2023-06-14T04:27:31;100792.53;;;15.22;63.04
4576;BME280;2300;51.874;8.430;2023-06-14T04:30:01;100807.41;;;15.43;63.15
4576;BME280;2300;51.874;8.430;2023-06-14T04:32:29;100809.97;;;15.55;63.30
4576;BME280;2300;51.874;8.430;2023-06-14T04:35:00;100785.03;;;15.49;62.97
4576;BME280;2300;51.874;8.430;2023-06-14T04:37:27;100815.19;;;15.78;62.41
4576;BME280;2300;51.874;8.430;2023-06-14T04:39:55;100834.34;;;16.11;62.20
4576;BME280;2300;51.874;8.430;2023-06-14T04:42:24;100826.03;;;16.58;62.21
4576;BME280;2300;51.874;8.430;2023-06-14T04:44:55;100825.03;;;16.85;60.57
4576;BME280;2300;51.874;8.430;2023-06-14T04:47:23;100827.84;;;16.90;60.73
4576;BME280;2300;51.874;8.430;2023-06-14T04:49:55;100833.91;;;17.59;60.15
4576;BME280;2300;51.874;8.430;2023-06-14T04:52:25;100829.47;;;18.14;59.16
4576;BME280;2300;51.874;8.430;2023-06-14T04:54:52;100804.75;;;18.32;58.19
4576;BME280;2300;51.874;8.430;2023-06-14T04:57:19;100833.06;;;18.55;57.16
4576;BME280;2300;51.874;8.430;2023-06-14T04:59:47;100826.69;;;18.39;57.87
4576;BME280;2300;51.874;8.430;2023-06-14T05:02:20;100827.19;;;18.56;57.75
4576;BME280;2300;51.874;8.430;2023-06-14T05:04:48;100814.41;;;18.55;56.47
4576;BME280;2300;51.874;8.430;2023-06-14T05:07:15;100831.03;;;18.75;58.03
4576;BME280;2300;51.874;8.430;2023-06-14T05:09:44;100835.41;;;19.07;57.43
4576;BME280;2300;51.874;8.430;2023-06-14T05:12:12;100829.19;;;19.20;56.49
4576;BME280;2300;51.874;8.430;2023-06-14T05:14:43;100828.66;;;19.67;56.84
4576;BME280;2300;51.874;8.430;2023-06-14T05:17:10;100771.44;;;19.80;55.77
4576;BME280;2300;51.874;8.430;2023-06-14T05:19:37;100842.16;;;20.51;54.82
4576;BME280;2300;51.874;8.430;2023-06-14T05:22:05;100841.63;;;20.97;52.16
4576;BME280;2300;51.874;8.430;2023-06-14T05:24:33;100845.47;;;21.01;53.02
4576;BME280;2300;51.874;8.430;2023-06-14T05:27:02;100844.13;;;20.99;53.13
4576;BME280;2300;51.874;8.430;2023-06-14T05:29:28;100839.44;;;21.74;51.37
4576;BME280;2300;51.874;8.430;2023-06-14T05:31:55;100846.69;;;23.27;50.16
4576;BME280;2300;51.874;8.430;2023-06-14T05:34:23;100840.38;;;24.07;47.04
4576;BME280;2300;51.874;8.430;2023-06-14T05:36:50;100835.97;;;25.24;45.65
4576;BME280;2300;51.874;8.430;2023-06-14T05:39:18;100850.28;;;25.96;45.28
4576;BME280;2300;51.874;8.430;2023-06-14T05:41:45;100847.19;;;26.15;44.37
4576;BME280;2300;51.874;8.430;2023-06-14T05:44:13;100860.50;;;26.53;43.72
4576;BME280;2300;51.874;8.430;2023-06-14T05:46:41;100849.66;;;25.74;44.68
4576;BME280;2300;51.874;8.430;2023-06-14T05:49:07;100846.31;;;26.32;42.90
4576;BME280;2300;51.874;8.430;2023-06-14T05:51:35;100848.16;;;25.85;44.82
4576;BME280;2300;51.874;8.430;2023-06-14T05:54:02;100847.28;;;26.45;43.03
4576;BME280;2300;51.874;8.430;2023-06-14T05:56:32;100849.91;;;26.50;42.92
4576;BME280;2300;51.874;8.430;2023-06-14T05:59:00;100837.41;;;25.70;43.58
4576;BME280;2300;51.874;8.430;2023-06-14T06:01:28;100846.50;;;25.67;44.82
4576;BME280;2300;51.874;8.430;2023-06-14T06:03:56;100859.13;;;25.12;44.69
4576;BME280;2300;51.874;8.430;2023-06-14T06:06:22;100872.03;;;25.22;45.51
4576;BME280;2300;51.874;8.430;2023-06-14T06:08:49;100848.34;;;25.80;43.96
4576;BME280;2300;51.874;8.430;2023-06-14T06:11:16;100870.34;;;25.95;43.40
4576;BME280;2300;51.874;8.430;2023-06-14T06:13:43;100874.31;;;27.30;42.04
4576;BME280;2300;51.874;8.430;2023-06-14T06:16:11;100868.41;;;27.44;41.98
4576;BME280;2300;51.874;8.430;2023-06-14T06:18:41;100860.31;;;27.63;41.21
4576;BME280;2300;51.874;8.430;2023-06-14T06:21:08;100852.59;;;26.29;43.32
4576;BME280;2300;51.874;8.430;2023-06-14T06:23:35;100814.41;;;25.76;44.68
4576;BME280;2300;51.874;8.430;2023-06-14T06:26:04;100854.78;;;26.87;42.67
4576;BME280;2300;51.874;8.430;2023-06-14T06:28:30;100871.22;;;26.76;43.24
4576;BME280;2300;51.874;8.430;2023-06-14T06:30:57;100870.53;;;26.79;42.45
4576;BME280;2300;51.874;8.430;2023-06-14T06:33:24;100868.97;;;26.35;43.55
4576;BME280;2300;51.874;8.430;2023-06-14T06:35:53;100851.13;;;26.31;41.77
4576;BME280;2300;51.874;8.430;2023-06-14T06:38:19;100846.69;;;25.79;43.79
4576;BME280;2300;51.874;8.430;2023-06-14T06:40:46;100867.16;;;25.53;43.36
4576;BME280;2300;51.874;8.430;2023-06-14T06:43:13;100844.88;;;24.69;43.75
4576;BME280;2300;51.874;8.430;2023-06-14T06:45:42;100805.69;;;23.80;43.87
4576;BME280;2300;51.874;8.430;2023-06-14T06:48:10;100872.22;;;24.11;44.84
4576;BME280;2300;51.874;8.430;2023-06-14T06:50:37;100863.25;;;23.64;45.58
4576;BME280;2300;51.874;8.430;2023-06-14T06:53:06;100876.63;;;23.67;45.66
4576;BME280;2300;51.874;8.430;2023-06-14T06:55:33;100865.06;;;23.82;44.53
4576;BME280;2300;51.874;8.430;2023-06-14T06:57:59;100865.19;;;23.14;45.49
4576;BME280;2300;51.874;8.430;2023-06-14T07:00:26;100869.81;;;22.64;46.81
4576;BME280;2300;51.874;8.430;2023-06-14T07:02:53;100879.16;;;23.28;47.01
4576;BME280;2300;51.874;8.430;2023-06-14T07:05:20;100856.78;;;22.87;47.08
4576;BME280;2300;51.874;8.430;2023-06-14T07:07:47;100866.41;;;22.35;48.89
4576;BME280;2300;51.874;8.430;2023-06-14T07:10:16;100873.88;;;21.88;48.63
4576;BME280;2300;51.874;8.430;2023-06-14T07:12:43;100874.19;;;21.87;48.14
4576;BME280;2300;51.874;8.430;2023-06-14T07:15:11;100882.06;;;21.66;49.90
4576;BME280;2300;51.874;8.430;2023-06-14T07:17:38;100887.66;;;21.66;49.22
4576;BME280;2300;51.874;8.430;2023-06-14T07:20:06;100885.56;;;21.71;49.80
4576;BME280;2300;51.874;8.430;2023-06-14T07:22:39;100886.63;;;21.57;49.40
4576;BME280;2300;51.874;8.430;2023-06-14T07:25:08;100888.97;;;21.87;49.36
4576;BME280;2300;51.874;8.430;2023-06-14T07:27:37;100888.63;;;22.12;49.59
4576;BME280;2300;51.874;8.430;2023-06-14T07:30:05;100899.94;;;22.02;48.36
4576;BME280;2300;51.874;8.430;2023-06-14T07:32:32;100888.31;;;21.58;47.87
4576;BME280;2300;51.874;8.430;2023-06-14T07:34:58;100893.47;;;21.27;49.92
4576;BME280;2300;51.874;8.430;2023-06-14T07:37:25;100896.88;;;21.24;49.38
4576;BME280;2300;51.874;8.430;2023-06-14T07:39:52;100892.25;;;21.09;50.56
4576;BME280;2300;51.874;8.430;2023-06-14T07:42:19;100893.22;;;21.66;50.35
4576;BME280;2300;51.874;8.430;2023-06-14T07:44:47;100905.13;;;21.95;48.40
4576;BME280;2300;51.874;8.430;2023-06-14T07:47:15;100909.13;;;21.47;48.84
4576;BME280;2300;51.874;8.430;2023-06-14T07:49:42;100897.47;;;21.21;49.90
4576;BME280;2300;51.874;8.430;2023-06-14T07:52:09;100906.16;;;21.14;49.81
4576;BME280;2300;51.874;8.430;2023-06-14T07:54:37;100903.19;;;21.53;50.15
4576;BME280;2300;51.874;8.430;2023-06-14T07:57:04;100872.06;;;21.41;51.09
4576;BME280;2300;51.874;8.430;2023-06-14T07:59:31;100904.16;;;21.62;50.11
4576;BME280;2300;51.874;8.430;2023-06-14T08:02:00;100912.19;;;21.69;50.13
4576;BME280;2300;51.874;8.430;2023-06-14T08:04:28;100914.75;;;22.21;49.08
4576;BME280;2300;51.874;8.430;2023-06-14T08:06:55;100902.19;;;22.19;48.30
4576;BME280;2300;51.874;8.430;2023-06-14T08:09:21;100904.69;;;22.20;50.37
4576;BME280;2300;51.874;8.430;2023-06-14T08:11:49;100902.66;;;21.89;49.68
4576;BME280;2300;51.874;8.430;2023-06-14T08:14:16;100907.00;;;22.00;49.60
4576;BME280;2300;51.874;8.430;2023-06-14T08:16:43;100912.63;;;22.13;49.47
4576;BME280;2300;51.874;8.430;2023-06-14T08:19:11;100916.09;;;22.24;52.06
4576;BME280;2300;51.874;8.430;2023-06-14T08:21:38;100919.25;;;22.36;49.40
4576;BME280;2300;51.874;8.430;2023-06-14T08:24:06;100923.00;;;22.45;50.07
4576;BME280;2300;51.874;8.430;2023-06-14T08:26:33;100909.94;;;22.41;51.52
4576;BME280;2300;51.874;8.430;2023-06-14T08:29:04;100905.69;;;22.76;50.32
4576;BME280;2300;51.874;8.430;2023-06-14T08:31:32;100897.22;;;22.48;48.96
4576;BME280;2300;51.874;8.430;2023-06-14T08:33:58;100912.19;;;22.39;48.16
4576;BME280;2300;51.874;8.430;2023-06-14T08:36:27;100888.13;;;22.24;48.69
4576;BME280;2300;51.874;8.430;2023-06-14T08:38:55;100909.19;;;22.35;48.80
4576;BME280;2300;51.874;8.430;2023-06-14T08:41:24;100914.13;;;22.57;49.87
4576;BME280;2300;51.874;8.430;2023-06-14T08:43:50;100911.63;;;22.55;48.26
4576;BME280;2300;51.874;8.430;2023-06-14T08:46:18;100922.81;;;22.55;48.90
4576;BME280;2300;51.874;8.430;2023-06-14T08:48:48;100912.03;;;22.16;49.53
4576;BME280;2300;51.874;8.430;2023-06-14T08:51:19;100904.63;;;22.26;49.67
4576;BME280;2300;51.874;8.430;2023-06-14T08:53:52;100909.63;;;22.10;50.52
4576;BME280;2300;51.874;8.430;2023-06-14T08:56:19;100896.72;;;21.95;51.17
4576;BME280;2300;51.874;8.430;2023-06-14T08:58:47;100888.88;;;22.30;50.53
4576;BME280;2300;51.874;8.430;2023-06-14T09:01:16;100911.72;;;22.69;50.45
4576;BME280;2300;51.874;8.430;2023-06-14T09:03:45;100923.94;;;22.41;50.18
4576;BME280;2300;51.874;8.430;2023-06-14T09:06:15;100897.75;;;22.50;50.14
4576;BME280;2300;51.874;8.430;2023-06-14T09:08:45;100928.13;;;22.25;49.98
4576;BME280;2300;51.874;8.430;2023-06-14T09:11:15;100918.94;;;22.05;50.32
4576;BME280;2300;51.874;8.430;2023-06-14T09:13:44;100914.00;;;21.97;51.00
4576;BME280;2300;51.874;8.430;2023-06-14T09:16:12;100906.75;;;22.47;50.59
4576;BME280;2300;51.874;8.430;2023-06-14T09:18:41;100909.31;;;22.44;50.63
4576;BME280;2300;51.874;8.430;2023-06-14T09:21:10;100927.69;;;22.82;51.00
4576;BME280;2300;51.874;8.430;2023-06-14T09:23:38;100923.63;;;22.42;49.50
4576;BME280;2300;51.874;8.430;2023-06-14T09:26:07;100914.31;;;22.47;53.15
4576;BME280;2300;51.874;8.430;2023-06-14T09:28:37;100924.81;;;23.15;51.19
4576;BME280;2300;51.874;8.430;2023-06-14T09:31:07;100936.94;;;22.96;48.67
4576;BME280;2300;51.874;8.430;2023-06-14T09:33:35;100914.28;;;22.33;50.63
4576;BME280;2300;51.874;8.430;2023-06-14T09:36:10;100918.66;;;22.72;49.68
4576;BME280;2300;51.874;8.430;2023-06-14T09:38:39;100918.84;;;22.75;50.25
4576;BME280;2300;51.874;8.430;2023-06-14T09:41:07;100914.75;;;22.54;49.65
4576;BME280;2300;51.874;8.430;2023-06-14T09:43:37;100871.06;;;22.26;49.55
4576;BME280;2300;51.874;8.430;2023-06-14T09:46:04;100934.47;;;22.30;48.32
4576;BME280;2300;51.874;8.430;2023-06-14T09:48:34;100925.41;;;22.19;50.93
4576;BME280;2300;51.874;8.430;2023-06-14T09:51:01;100919.56;;;22.35;51.13
4576;BME280;2300;51.874;8.430;2023-06-14T09:53:30;100935.69;;;22.56;51.00
4576;BME280;2300;51.874;8.430;2023-06-14T09:55:59;100922.78;;;22.42;48.92
4576;BME280;2300;51.874;8.430;2023-06-14T09:58:29;100937.22;;;22.16;48.88
4576;BME280;2300;51.874;8.430;2023-06-14T10:00:59;100936.41;;;22.48;50.45
4576;BME280;2300;51.874;8.430;2023-06-14T10:03:31;100929.53;;;22.73;49.00
4576;BME280;2300;51.874;8.430;2023-06-14T10:06:02;100930.69;;;22.86;50.96
4576;BME280;2300;51.874;8.430;2023-06-14T10:08:31;100927.88;;;22.86;48.29
4576;BME280;2300;51.874;8.430;2023-06-14T10:10:59;100902.31;;;22.60;49.65
4576;BME280;2300;51.874;8.430;2023-06-14T10:13:26;100919.56;;;22.67;50.64
4576;BME280;2300;51.874;8.430;2023-06-14T10:16:00;100900.34;;;23.20;50.94
4576;BME280;2300;51.874;8.430;2023-06-14T10:18:42;100890.06;;;23.43;49.12
4576;BME280;2300;51.874;8.430;2023-06-14T10:21:16;100920.19;;;23.73;47.42
4576;BME280;2300;51.874;8.430;2023-06-14T10:23:46;100906.75;;;23.48;49.28
4576;BME280;2300;51.874;8.430;2023-06-14T10:26:19;100920.03;;;23.56;48.17
4576;BME280;2300;51.874;8.430;2023-06-14T10:28:58;100915.50;;;23.05;48.53
4576;BME280;2300;51.874;8.430;2023-06-14T10:31:43;100925.63;;;23.29;50.12
4576;BME280;2300;51.874;8.430;2023-06-14T10:34:11;100866.00;;;23.01;49.49
4576;BME280;2300;51.874;8.430;2023-06-14T10:36:42;100881.47;;;22.98;48.56
4576;BME280;2300;51.874;8.430;2023-06-14T10:39:14;100912.47;;;23.29;48.31
4576;BME280;2300;51.874;8.430;2023-06-14T10:41:41;100905.72;;;23.30;50.04
4576;BME280;2300;51.874;8.430;2023-06-14T10:44:33;100923.53;;;23.75;48.13
4576;BME280;2300;51.874;8.430;2023-06-14T10:47:06;100911.47;;;24.24;48.18
4576;BME280;2300;51.874;8.430;2023-06-14T10:49:41;100907.94;;;24.41;46.29
4576;BME280;2300;51.874;8.430;2023-06-14T10:52:09;100912.19;;;23.80;47.73
4576;BME280;2300;51.874;8.430;2023-06-14T10:55:02;100906.63;;;24.03;46.62
4576;BME280;2300;51.874;8.430;2023-06-14T10:57:31;100912.31;;;23.75;47.98
4576;BME280;2300;51.874;8.430;2023-06-14T10:59:59;100897.69;;;23.78;48.13
4576;BME280;2300;51.874;8.430;2023-06-14T11:03:18;100854.25;;;23.54;47.63
4576;BME280;2300;51.874;8.430;2023-06-14T11:05:56;100915.03;;;24.03;48.17
4576;BME280;2300;51.874;8.430;2023-06-14T11:11:13;100906.44;;;23.99;46.71
4576;BME280;2300;51.874;8.430;2023-06-14T11:13:44;100877.41;;;24.40;48.73
4576;BME280;2300;51.874;8.430;2023-06-14T11:16:12;100903.50;;;24.40;47.67
4576;BME280;2300;51.874;8.430;2023-06-14T11:18:40;100898.72;;;24.05;46.38
4576;BME280;2300;51.874;8.430;2023-06-14T11:21:09;100889.31;;;23.65;46.80
4576;BME280;2300;51.874;8.430;2023-06-14T11:23:36;100892.53;;;23.58;46.83
4576;BME280;2300;51.874;8.430;2023-06-14T11:26:03;100892.03;;;23.56;48.52
4576;BME280;2300;51.874;8.430;2023-06-14T11:28:37;100894.31;;;23.27;48.97
4576;BME280;2300;51.874;8.430;2023-06-14T11:31:04;100891.00;;;23.25;48.40
4576;BME280;2300;51.874;8.430;2023-06-14T11:33:31;100885.31;;;23.16;49.37
4576;BME280;2300;51.874;8.430;2023-06-14T11:36:01;100866.56;;;23.66;48.80
4576;BME280;2300;51.874;8.430;2023-06-14T11:38:29;100892.53;;;23.94;48.16
4576;BME280;2300;51.874;8.430;2023-06-14T11:40:58;100868.72;;;23.69;47.54
4576;BME280;2300;51.874;8.430;2023-06-14T11:43:26;100891.25;;;24.14;47.71
4576;BME280;2300;51.874;8.430;2023-06-14T11:45:54;100896.13;;;24.53;49.30
4576;BME280;2300;51.874;8.430;2023-06-14T11:48:37;100896.44;;;24.73;46.75
4576;BME280;2300;51.874;8.430;2023-06-14T11:51:07;100869.19;;;24.21;47.13
4576;BME280;2300;51.874;8.430;2023-06-14T11:53:34;100888.06;;;24.29;47.09
4576;BME280;2300;51.874;8.430;2023-06-14T11:56:01;100891.22;;;24.36;46.43
4576;BME280;2300;51.874;8.430;2023-06-14T11:58:30;100881.91;;;24.49;47.20
4576;BME280;2300;51.874;8.430;2023-06-14T12:01:00;100887.00;;;24.47;47.28
4576;BME280;2300;51.874;8.430;2023-06-14T12:03:28;100870.44;;;24.15;49.03
4576;BME280;2300;51.874;8.430;2023-06-14T12:06:05;100888.41;;;24.58;47.51
4576;BME280;2300;51.874;8.430;2023-06-14T12:08:34;100887.03;;;24.78;47.68
4576;BME280;2300;51.874;8.430;2023-06-14T12:11:05;100865.63;;;24.91;46.28
4576;BME280;2300;51.874;8.430;2023-06-14T12:13:34;100884.03;;;25.14;45.56
4576;BME280;2300;51.874;8.430;2023-06-14T12:16:01;100884.84;;;25.06;46.73
4576;BME280;2300;51.874;8.430;2023-06-14T12:18:32;100885.84;;;25.10;44.77
4576;BME280;2300;51.874;8.430;2023-06-14T12:21:01;100879.59;;;25.13;45.13
4576;BME280;2300;51.874;8.430;2023-06-14T12:23:42;100874.91;;;25.00;46.95
4576;BME280;2300;51.874;8.430;2023-06-14T12:26:12;100881.19;;;25.45;47.50
4576;BME280;2300;51.874;8.430;2023-06-14T12:28:40;100869.47;;;25.43;45.68
4576;BME280;2300;51.874;8.430;2023-06-14T12:31:07;100870.97;;;25.01;44.03
4576;BME280;2300;51.874;8.430;2023-06-14T12:33:34;100874.66;;;24.79;45.94
4576;BME280;2300;51.874;8.430;2023-06-14T12:36:03;100875.91;;;25.04;46.70
4576;BME280;2300;51.874;8.430;2023-06-14T12:38:30;100875.00;;;25.17;44.75
4576;BME280;2300;51.874;8.430;2023-06-14T12:40:59;100826.16;;;24.87;45.80
4576;BME280;2300;51.874;8.430;2023-06-14T12:43:26;100878.25;;;25.02;44.97
4576;BME280;2300;51.874;8.430;2023-06-14T12:45:54;100881.28;;;24.83;44.54
4576;BME280;2300;51.874;8.430;2023-06-14T12:48:23;100887.09;;;24.87;46.76
4576;BME280;2300;51.874;8.430;2023-06-14T12:50:53;100852.16;;;24.70;45.68
4576;BME280;2300;51.874;8.430;2023-06-14T12:53:21;100878.81;;;24.82;46.69
4576;BME280;2300;51.874;8.430;2023-06-14T12:55:48;100879.47;;;25.35;44.42
4576;BME280;2300;51.874;8.430;2023-06-14T12:58:17;100877.97;;;25.29;46.52
4576;BME280;2300;51.874;8.430;2023-06-14T13:00:45;100884.88;;;25.71;46.89
4576;BME280;2300;51.874;8.430;2023-06-14T13:03:11;100877.25;;;25.63;44.04
4576;BME280;2300;51.874;8.430;2023-06-14T13:05:40;100863.59;;;25.22;45.19
4576;BME280;2300;51.874;8.430;2023-06-14T13:08:08;100874.81;;;25.70;46.90
4576;BME280;2300;51.874;8.430;2023-06-14T13:10:35;100880.34;;;25.44;45.28
4576;BME280;2300;51.874;8.430;2023-06-14T13:13:02;100837.47;;;24.73;44.96
4576;BME280;2300;51.874;8.430;2023-06-14T13:15:30;100882.91;;;24.76;46.46
4576;BME280;2300;51.874;8.430;2023-06-14T13:17:57;100849.25;;;24.84;47.54
4576;BME280;2300;51.874;8.430;2023-06-14T13:20:24;100879.41;;;25.58;47.00